sensor_id;sensor_type;location;lat;lon;timestamp;temperature;humidity
7174;DHT22;3628;48.654;8.932;2023-02-13T00:02:06;-0.10;99.90
7174;DHT22;3628;48.654;8.932;2023-02-13T00:04:32;0.00;99.90
7174;DHT22;3628;48.654;8.932;2023-02-13T00:06:57;-0.20;99.90
7174;DHT22;3628;48.654;8.932;2023-02-13T00:09:23;-0.30;99.90
7174;DHT22;3628;48.654;8.932;2023-02-13T00:11:48;-0.30;99.90
7174;DHT22;3628;48.654;8.932;2023-02-13T00:14:14;-0.30;99.90
7174;DHT22;3628;48.654;8.932;2023-02-13T00:16:39;-0.30;99.90
7174;DHT22;3628;48.654;8.932;2023-02-13T00:19:05;-0.30;99.90
7174;DHT22;3628;48.654;8.932;2023-02-13T00:21:30;-0.30;99.90
7174;DHT22;3628;48.654;8.932;2023-02-13T00:23:56;-0.30;99.90
7174;DHT22;3628;48.654;8.932;2023-02-13T00:26:21;-0.40;99.90
7174;DHT22;3628;48.654;8.932;2023-02-13T00:28:47;-0.30;99.90
7174;DHT22;3628;48.654;8.932;2023-02-13T00:31:15;-0.30;99.90
7174;DHT22;3628;48.654;8.932;2023-02-13T00:33:41;-0.30;99.90
7174;DHT22;3628;48.654;8.932;2023-02-13T00:36:10;-0.30;99.90
7174;DHT22;3628;48.654;8.932;2023-02-13T00:38:37;-0.30;99.90
7174;DHT22;3628;48.654;8.932;2023-02-13T00:41:03;-0.30;99.90
7174;DHT22;3628;48.654;8.932;2023-02-13T00:43:30;-0.30;99.90
7174;DHT22;3628;48.654;8.932;2023-02-13T00:45:56;-0.30;99.90
7174;DHT22;3628;48.654;8.932;2023-02-13T00:48:23;-0.30;99.90
7174;DHT22;3628;48.654;8.932;2023-02-13T00:50:49;-0.30;99.90
7174;DHT22;3628;48.654;8.932;2023-02-13T00:53:17;-0.30;99.90
7174;DHT22;3628;48.654;8.932;2023-02-13T00:55:43;-0.30;99.90
7174;DHT22;3628;48.654;8.932;2023-02-13T00:58:08;-0.30;99.90
7174;DHT22;3628;48.654;8.932;2023-02-13T01:00:34;-0.30;99.90
7174;DHT22;3628;48.654;8.932;2023-02-13T01:02:59;-0.30;99.90
7174;DHT22;3628;48.654;8.932;2023-02-13T01:05:25;-0.30;99.90
7174;DHT22;3628;48.654;8.932;2023-02-13T01:07:52;-0.30;99.90
7174;DHT22;3628;48.654;8.932;2023-02-13T01:10:18;-0.40;99.90
7174;DHT22;3628;48.654;8.932;2023-02-13T01:12:44;-0.40;99.90
7174;DHT22;3628;48.654;8.932;2023-02-13T01:15:09;-0.40;99.90
7174;DHT22;3628;48.654;8.932;2023-02-13T01:17:35;-0.50;99.90
7174;DHT22;3628;48.654;8.932;2023-02-13T01:20:05;-0.50;99.90
7174;DHT22;3628;48.654;8.932;2023-02-13T01:22:30;-0.50;99.90
7174;DHT22;3628;48.654;8.932;2023-02-13T01:24:56;-0.50;99.90
7174;DHT22;3628;48.654;8.932;2023-02-13T01:27:22;-0.50;99.90
7174;DHT22;3628;48.654;8.932;2023-02-13T01:29:47;-0.50;99.90
7174;DHT22;3628;48.654;8.932;2023-02-13T01:32:13;-0.60;99.90
7174;DHT22;3628;48.654;8.932;2023-02-13T01:34:38;-0.60;99.90
7174;DHT22;3628;48.654;8.932;2023-02-13T01:37:04;-0.70;99.90
7174;DHT22;3628;48.654;8.932;2023-02-13T01:39:30;-0.70;99.90
7174;DHT22;3628;48.654;8.932;2023-02-13T01:41:55;-0.70;99.90
7174;DHT22;3628;48.654;8.932;2023-02-13T01:47:13;-0.80;99.90
7174;DHT22;3628;48.654;8.932;2023-02-13T01:49:40;-0.80;99.90
7174;DHT22;3628;48.654;8.932;2023-02-13T01:52:09;-0.90;99.90
7174;DHT22;3628;48.654;8.932;2023-02-13T01:54:36;-0.90;99.90
7174;DHT22;3628;48.654;8.932;2023-02-13T01:57:08;-0.90;99.90
7174;DHT22;3628;48.654;8.932;2023-02-13T01:59:53;-0.90;99.90
7174;DHT22;3628;48.654;8.932;2023-02-13T02:02:20;-0.90;99.90
7174;DHT22;3628;48.654;8.932;2023-02-13T02:04:47;-1.00;99.90
7174;DHT22;3628;48.654;8.932;2023-02-13T02:07:18;-1.10;99.90
7174;DHT22;3628;48.654;8.932;2023-02-13T02:09:44;-1.00;99.90
7174;DHT22;3628;48.654;8.932;2023-02-13T02:12:30;-1.00;99.90
7174;DHT22;3628;48.654;8.932;2023-02-13T02:14:59;-1.00;99.90
7174;DHT22;3628;48.654;8.932;2023-02-13T02:17:26;-1.00;99.90
7174;DHT22;3628;48.654;8.932;2023-02-13T02:34:19;-0.90;99.90
7174;DHT22;3628;48.654;8.932;2023-02-13T02:37:03;-0.90;99.90
7174;DHT22;3628;48.654;8.932;2023-02-13T02:39:33;-0.90;99.90
7174;DHT22;3628;48.654;8.932;2023-02-13T02:42:27;-0.90;99.90
7174;DHT22;3628;48.654;8.932;2023-02-13T02:45:09;-0.90;99.90
7174;DHT22;3628;48.654;8.932;2023-02-13T02:47:55;-0.80;99.90
7174;DHT22;3628;48.654;8.932;2023-02-13T02:50:49;-0.80;99.90
7174;DHT22;3628;48.654;8.932;2023-02-13T02:53:37;-0.80;99.90
7174;DHT22;3628;48.654;8.932;2023-02-13T02:56:52;-0.80;99.90
7174;DHT22;3628;48.654;8.932;2023-02-13T02:58:59;-0.80;99.90
7174;DHT22;3628;48.654;8.932;2023-02-13T03:01:46;-0.80;99.90
7174;DHT22;3628;48.654;8.932;2023-02-13T03:04:38;-0.80;99.90
7174;DHT22;3628;48.654;8.932;2023-02-13T03:07:23;-0.80;99.90
7174;DHT22;3628;48.654;8.932;2023-02-13T03:09:51;-0.80;99.90
7174;DHT22;3628;48.654;8.932;2023-02-13T03:15:52;-0.90;99.90
7174;DHT22;3628;48.654;8.932;2023-02-13T03:18:46;-0.90;99.90
7174;DHT22;3628;48.654;8.932;2023-02-13T03:30:25;-1.10;99.90
7174;DHT22;3628;48.654;8.932;2023-02-13T03:33:19;-1.10;99.90
7174;DHT22;3628;48.654;8.932;2023-02-13T03:36:09;-1.10;99.90
7174;DHT22;3628;48.654;8.932;2023-02-13T03:39:19;-1.00;99.90
7174;DHT22;3628;48.654;8.932;2023-02-13T03:41:53;-1.00;99.90
7174;DHT22;3628;48.654;8.932;2023-02-13T03:47:02;-1.10;99.90
7174;DHT22;3628;48.654;8.932;2023-02-13T03:49:43;-1.00;99.90
7174;DHT22;3628;48.654;8.932;2023-02-13T03:55:14;-1.10;99.90
7174;DHT22;3628;48.654;8.932;2023-02-13T03:58:04;-1.10;99.90
7174;DHT22;3628;48.654;8.932;2023-02-13T04:00:51;-1.10;99.90
7174;DHT22;3628;48.654;8.932;2023-02-13T04:03:44;-1.10;99.90
7174;DHT22;3628;48.654;8.932;2023-02-13T04:06:12;-1.10;99.90
7174;DHT22;3628;48.654;8.932;2023-02-13T04:08:39;-1.10;99.90
7174;DHT22;3628;48.654;8.932;2023-02-13T04:12:25;-1.00;99.90
7174;DHT22;3628;48.654;8.932;2023-02-13T04:17:20;-1.00;99.90
7174;DHT22;3628;48.654;8.932;2023-02-13T04:19:47;-1.00;99.90
7174;DHT22;3628;48.654;8.932;2023-02-13T04:22:13;-1.00;99.90
7174;DHT22;3628;48.654;8.932;2023-02-13T04:24:39;-1.00;99.90
7174;DHT22;3628;48.654;8.932;2023-02-13T04:27:04;-1.00;99.90
7174;DHT22;3628;48.654;8.932;2023-02-13T04:29:30;-1.00;99.90
7174;DHT22;3628;48.654;8.932;2023-02-13T04:31:55;-0.90;99.90
7174;DHT22;3628;48.654;8.932;2023-02-13T04:34:21;-0.90;99.90
7174;DHT22;3628;48.654;8.932;2023-02-13T04:36:46;-1.00;99.90
7174;DHT22;3628;48.654;8.932;2023-02-13T04:39:12;-1.00;99.90
7174;DHT22;3628;48.654;8.932;2023-02-13T04:41:37;-1.00;99.90
7174;DHT22;3628;48.654;8.932;2023-02-13T04:44:03;-0.90;99.90
7174;DHT22;3628;48.654;8.932;2023-02-13T04:46:29;-1.00;99.90
7174;DHT22;3628;48.654;8.932;2023-02-13T04:48:54;-0.90;99.90
7174;DHT22;3628;48.654;8.932;2023-02-13T04:51:20;-1.00;99.90
7174;DHT22;3628;48.654;8.932;2023-02-13T04:53:45;-0.90;99.90
7174;DHT22;3628;48.654;8.932;2023-02-13T04:56:12;-0.90;99.90
7174;DHT22;3628;48.654;8.932;2023-02-13T04:58:37;-0.90;99.90
7174;DHT22;3628;48.654;8.932;2023-02-13T05:01:11;-0.90;99.90
7174;DHT22;3628;48.654;8.932;2023-02-13T05:03:36;-0.90;99.90
7174;DHT22;3628;48.654;8.932;2023-02-13T05:06:02;-0.90;99.90
7174;DHT22;3628;48.654;8.932;2023-02-13T05:08:28;-1.00;99.90
7174;DHT22;3628;48.654;8.932;2023-02-13T05:10:53;-1.00;99.90
7174;DHT22;3628;48.654;8.932;2023-02-13T05:13:19;-1.10;99.90
7174;DHT22;3628;48.654;8.932;2023-02-13T05:15:47;-1.10;99.90
7174;DHT22;3628;48.654;8.932;2023-02-13T05:18:12;-1.10;99.90
7174;DHT22;3628;48.654;8.932;2023-02-13T05:20:40;-1.10;99.90
7174;DHT22;3628;48.654;8.932;2023-02-13T05:23:11;-1.20;99.90
7174;DHT22;3628;48.654;8.932;2023-02-13T05:25:47;-1.20;99.90
7174;DHT22;3628;48.654;8.932;2023-02-13T05:28:12;-1.20;99.90
7174;DHT22;3628;48.654;8.932;2023-02-13T05:30:57;-1.10;99.90
7174;DHT22;3628;48.654;8.932;2023-02-13T05:33:22;-1.10;99.90
7174;DHT22;3628;48.654;8.932;2023-02-13T05:35:48;-1.10;99.90
7174;DHT22;3628;48.654;8.932;2023-02-13T05:38:14;-1.10;99.90
7174;DHT22;3628;48.654;8.932;2023-02-13T05:40:39;-1.10;99.90
7174;DHT22;3628;48.654;8.932;2023-02-13T05:43:05;-1.10;99.90
7174;DHT22;3628;48.654;8.932;2023-02-13T05:45:30;-1.10;99.90
7174;DHT22;3628;48.654;8.932;2023-02-13T05:47:56;-1.10;99.90
7174;DHT22;3628;48.654;8.932;2023-02-13T05:50:22;-1.20;99.90
7174;DHT22;3628;48.654;8.932;2023-02-13T05:52:47;-1.20;99.90
7174;DHT22;3628;48.654;8.932;2023-02-13T05:55:13;-1.20;99.90
7174;DHT22;3628;48.654;8.932;2023-02-13T05:57:38;-1.30;99.90
7174;DHT22;3628;48.654;8.932;2023-02-13T06:00:04;-1.20;99.90
7174;DHT22;3628;48.654;8.932;2023-02-13T06:02:30;-1.30;99.90
7174;DHT22;3628;48.654;8.932;2023-02-13T06:04:56;-1.30;99.90
7174;DHT22;3628;48.654;8.932;2023-02-13T06:07:21;-1.30;99.90
7174;DHT22;3628;48.654;8.932;2023-02-13T06:09:47;-1.30;99.90
7174;DHT22;3628;48.654;8.932;2023-02-13T06:12:12;-1.40;99.90
7174;DHT22;3628;48.654;8.932;2023-02-13T06:14:38;-1.40;99.90
7174;DHT22;3628;48.654;8.932;2023-02-13T06:17:03;-1.40;99.90
7174;DHT22;3628;48.654;8.932;2023-02-13T06:19:29;-1.40;99.90
7174;DHT22;3628;48.654;8.932;2023-02-13T06:21:54;-1.40;99.90
7174;DHT22;3628;48.654;8.932;2023-02-13T06:24:20;-1.50;99.90
7174;DHT22;3628;48.654;8.932;2023-02-13T06:26:45;-1.50;99.90
7174;DHT22;3628;48.654;8.932;2023-02-13T06:29:11;-1.50;99.90
7174;DHT22;3628;48.654;8.932;2023-02-13T06:31:37;-1.60;99.90
7174;DHT22;3628;48.654;8.932;2023-02-13T06:34:02;-1.60;99.90
7174;DHT22;3628;48.654;8.932;2023-02-13T06:36:29;-1.60;99.90
7174;DHT22;3628;48.654;8.932;2023-02-13T06:38:54;-1.60;99.90
7174;DHT22;3628;48.654;8.932;2023-02-13T06:41:20;-1.60;99.90
7174;DHT22;3628;48.654;8.932;2023-02-13T06:43:45;-1.60;99.90
7174;DHT22;3628;48.654;8.932;2023-02-13T06:46:11;-1.60;99.90
7174;DHT22;3628;48.654;8.932;2023-02-13T06:48:37;-1.60;99.90
7174;DHT22;3628;48.654;8.932;2023-02-13T06:51:02;-1.60;99.90
7174;DHT22;3628;48.654;8.932;2023-02-13T06:53:28;-1.60;99.90
7174;DHT22;3628;48.654;8.932;2023-02-13T06:55:54;-1.60;99.90
7174;DHT22;3628;48.654;8.932;2023-02-13T06:58:21;-1.60;99.90
7174;DHT22;3628;48.654;8.932;2023-02-13T07:00:48;-1.60;99.90
7174;DHT22;3628;48.654;8.932;2023-02-13T07:03:13;-1.50;99.90
7174;DHT22;3628;48.654;8.932;2023-02-13T07:05:43;-1.50;99.90
7174;DHT22;3628;48.654;8.932;2023-02-13T07:08:10;-1.40;99.90
7174;DHT22;3628;48.654;8.932;2023-02-13T07:10:37;-1.40;99.90
7174;DHT22;3628;48.654;8.932;2023-02-13T07:13:03;-1.30;99.90
7174;DHT22;3628;48.654;8.932;2023-02-13T07:15:29;-1.20;99.90
7174;DHT22;3628;48.654;8.932;2023-02-13T07:17:55;-1.10;99.90
7174;DHT22;3628;48.654;8.932;2023-02-13T07:20:21;-1.10;99.90
7174;DHT22;3628;48.654;8.932;2023-02-13T07:22:47;-1.10;99.90
7174;DHT22;3628;48.654;8.932;2023-02-13T07:25:14;-1.00;99.90
7174;DHT22;3628;48.654;8.932;2023-02-13T07:27:39;-1.00;99.90
7174;DHT22;3628;48.654;8.932;2023-02-13T07:30:05;-0.90;99.90
7174;DHT22;3628;48.654;8.932;2023-02-13T07:32:31;-0.80;99.90
7174;DHT22;3628;48.654;8.932;2023-02-13T07:34:57;-0.70;99.90
7174;DHT22;3628;48.654;8.932;2023-02-13T07:37:22;-0.60;99.90
7174;DHT22;3628;48.654;8.932;2023-02-13T07:39:48;-0.50;99.90
7174;DHT22;3628;48.654;8.932;2023-02-13T07:42:13;-0.40;99.90
7174;DHT22;3628;48.654;8.932;2023-02-13T07:44:39;-0.40;99.90
7174;DHT22;3628;48.654;8.932;2023-02-13T07:47:04;-0.30;99.90
7174;DHT22;3628;48.654;8.932;2023-02-13T07:49:30;-0.20;99.90
7174;DHT22;3628;48.654;8.932;2023-02-13T07:51:56;-0.10;99.90
7174;DHT22;3628;48.654;8.932;2023-02-13T07:54:23;0.00;99.90
7174;DHT22;3628;48.654;8.932;2023-02-13T07:56:48;0.10;99.90
7174;DHT22;3628;48.654;8.932;2023-02-13T07:59:14;0.20;99.90
7174;DHT22;3628;48.654;8.932;2023-02-13T08:01:40;0.30;99.90
7174;DHT22;3628;48.654;8.932;2023-02-13T08:04:05;0.40;99.90
7174;DHT22;3628;48.654;8.932;2023-02-13T08:06:31;0.50;99.90
7174;DHT22;3628;48.654;8.932;2023-02-13T08:08:56;0.50;99.90
7174;DHT22;3628;48.654;8.932;2023-02-13T08:11:41;0.60;99.90
7174;DHT22;3628;48.654;8.932;2023-02-13T08:14:25;0.60;99.90
7174;DHT22;3628;48.654;8.932;2023-02-13T08:16:52;0.80;99.90
7174;DHT22;3628;48.654;8.932;2023-02-13T08:19:18;1.00;99.90
7174;DHT22;3628;48.654;8.932;2023-02-13T08:21:44;1.10;99.90
7174;DHT22;3628;48.654;8.932;2023-02-13T08:24:10;1.10;99.90
7174;DHT22;3628;48.654;8.932;2023-02-13T08:26:36;1.20;99.90
7174;DHT22;3628;48.654;8.932;2023-02-13T08:29:03;1.30;99.90
7174;DHT22;3628;48.654;8.932;2023-02-13T08:31:28;1.40;99.90
7174;DHT22;3628;48.654;8.932;2023-02-13T08:33:55;1.50;99.90
7174;DHT22;3628;48.654;8.932;2023-02-13T08:36:22;1.60;99.90
7174;DHT22;3628;48.654;8.932;2023-02-13T08:38:47;1.70;99.90
7174;DHT22;3628;48.654;8.932;2023-02-13T08:41:14;1.90;99.90
7174;DHT22;3628;48.654;8.932;2023-02-13T08:43:40;2.00;99.90
7174;DHT22;3628;48.654;8.932;2023-02-13T08:46:05;2.20;99.90
7174;DHT22;3628;48.654;8.932;2023-02-13T08:48:32;2.40;99.90
7174;DHT22;3628;48.654;8.932;2023-02-13T08:50:58;2.40;99.90
7174;DHT22;3628;48.654;8.932;2023-02-13T08:53:24;2.50;99.90
7174;DHT22;3628;48.654;8.932;2023-02-13T08:55:56;2.60;99.90
7174;DHT22;3628;48.654;8.932;2023-02-13T08:58:22;2.70;99.90
7174;DHT22;3628;48.654;8.932;2023-02-13T09:00:48;2.80;99.90
7174;DHT22;3628;48.654;8.932;2023-02-13T09:03:13;2.90;99.90
7174;DHT22;3628;48.654;8.932;2023-02-13T09:05:39;3.10;99.90
7174;DHT22;3628;48.654;8.932;2023-02-13T09:08:04;3.00;99.90
7174;DHT22;3628;48.654;8.932;2023-02-13T09:10:31;3.10;99.90
7174;DHT22;3628;48.654;8.932;2023-02-13T09:12:57;3.00;99.90
7174;DHT22;3628;48.654;8.932;2023-02-13T09:15:22;3.00;99.90
7174;DHT22;3628;48.654;8.932;2023-02-13T09:17:48;2.90;99.90
7174;DHT22;3628;48.654;8.932;2023-02-13T09:20:14;2.90;99.90
7174;DHT22;3628;48.654;8.932;2023-02-13T09:22:40;2.90;99.90
7174;DHT22;3628;48.654;8.932;2023-02-13T09:25:07;3.10;99.90
7174;DHT22;3628;48.654;8.932;2023-02-13T09:27:36;3.20;99.90
7174;DHT22;3628;48.654;8.932;2023-02-13T09:30:04;3.20;99.90
7174;DHT22;3628;48.654;8.932;2023-02-13T09:32:30;3.20;99.90
7174;DHT22;3628;48.654;8.932;2023-02-13T09:34:55;3.40;99.90
7174;DHT22;3628;48.654;8.932;2023-02-13T09:37:21;3.40;99.90
7174;DHT22;3628;48.654;8.932;2023-02-13T09:39:47;3.40;99.90
7174;DHT22;3628;48.654;8.932;2023-02-13T09:42:19;3.30;99.90
7174;DHT22;3628;48.654;8.932;2023-02-13T09:44:47;3.50;99.90
7174;DHT22;3628;48.654;8.932;2023-02-13T09:52:38;3.80;99.90
7174;DHT22;3628;48.654;8.932;2023-02-13T09:55:20;4.00;99.90
7174;DHT22;3628;48.654;8.932;2023-02-13T09:57:52;4.10;99.90
7174;DHT22;3628;48.654;8.932;2023-02-13T10:00:32;4.30;99.90
7174;DHT22;3628;48.654;8.932;2023-02-13T10:05:41;4.50;99.90
7174;DHT22;3628;48.654;8.932;2023-02-13T10:13:44;4.60;99.90
7174;DHT22;3628;48.654;8.932;2023-02-13T10:16:20;4.60;99.90
7174;DHT22;3628;48.654;8.932;2023-02-13T10:18:58;4.70;99.90
7174;DHT22;3628;48.654;8.932;2023-02-13T10:21:39;4.70;99.90
7174;DHT22;3628;48.654;8.932;2023-02-13T10:24:13;4.60;99.90
7174;DHT22;3628;48.654;8.932;2023-02-13T10:26:43;4.40;99.90
7174;DHT22;3628;48.654;8.932;2023-02-13T10:29:16;4.10;99.90
7174;DHT22;3628;48.654;8.932;2023-02-13T10:32:08;4.10;99.90
7174;DHT22;3628;48.654;8.932;2023-02-13T10:34:44;4.20;99.90
7174;DHT22;3628;48.654;8.932;2023-02-13T10:37:14;4.10;99.90
7174;DHT22;3628;48.654;8.932;2023-02-13T10:39:42;4.10;99.90
7174;DHT22;3628;48.654;8.932;2023-02-13T10:42:33;4.20;99.90
7174;DHT22;3628;48.654;8.932;2023-02-13T10:45:10;4.30;99.90
7174;DHT22;3628;48.654;8.932;2023-02-13T10:48:03;4.50;99.90
7174;DHT22;3628;48.654;8.932;2023-02-13T10:50:43;4.60;99.90
7174;DHT22;3628;48.654;8.932;2023-02-13T10:53:41;4.90;99.90
7174;DHT22;3628;48.654;8.932;2023-02-13T10:56:32;5.20;99.90
7174;DHT22;3628;48.654;8.932;2023-02-13T10:59:23;5.50;99.90
7174;DHT22;3628;48.654;8.932;2023-02-13T11:02:21;5.90;99.90
7174;DHT22;3628;48.654;8.932;2023-02-13T11:04:49;6.10;99.90
7174;DHT22;3628;48.654;8.932;2023-02-13T11:07:18;6.20;99.90
7174;DHT22;3628;48.654;8.932;2023-02-13T11:09:47;6.50;99.90
7174;DHT22;3628;48.654;8.932;2023-02-13T11:12:29;6.70;99.90
7174;DHT22;3628;48.654;8.932;2023-02-13T11:15:02;6.90;99.90
7174;DHT22;3628;48.654;8.932;2023-02-13T11:17:30;6.90;99.90
7174;DHT22;3628;48.654;8.932;2023-02-13T11:19:59;7.00;99.90
7174;DHT22;3628;48.654;8.932;2023-02-13T11:22:39;7.10;99.90
7174;DHT22;3628;48.654;8.932;2023-02-13T11:25:22;7.10;99.90
7174;DHT22;3628;48.654;8.932;2023-02-13T11:27:50;7.20;99.90
7174;DHT22;3628;48.654;8.932;2023-02-13T11:32:57;7.40;99.90
7174;DHT22;3628;48.654;8.932;2023-02-13T11:40:39;7.40;99.90
7174;DHT22;3628;48.654;8.932;2023-02-13T11:43:07;7.50;99.90
7174;DHT22;3628;48.654;8.932;2023-02-13T11:45:33;7.60;99.90
7174;DHT22;3628;48.654;8.932;2023-02-13T11:47:59;7.80;99.90
7174;DHT22;3628;48.654;8.932;2023-02-13T11:50:32;7.90;99.90
7174;DHT22;3628;48.654;8.932;2023-02-13T11:53:08;8.00;99.90
7174;DHT22;3628;48.654;8.932;2023-02-13T11:55:41;7.80;99.90
7174;DHT22;3628;48.654;8.932;2023-02-13T12:00:38;7.40;99.90
7174;DHT22;3628;48.654;8.932;2023-02-13T12:03:27;7.30;99.90
7174;DHT22;3628;48.654;8.932;2023-02-13T12:06:12;7.30;99.90
7174;DHT22;3628;48.654;8.932;2023-02-13T12:08:39;7.30;99.90
7174;DHT22;3628;48.654;8.932;2023-02-13T12:13:53;7.60;99.90
7174;DHT22;3628;48.654;8.932;2023-02-13T12:16:30;7.90;99.90
7174;DHT22;3628;48.654;8.932;2023-02-13T12:19:00;8.10;99.90
7174;DHT22;3628;48.654;8.932;2023-02-13T12:22:04;8.20;99.90
7174;DHT22;3628;48.654;8.932;2023-02-13T12:31:01;8.20;99.90
7174;DHT22;3628;48.654;8.932;2023-02-13T12:36:38;8.00;99.90
7174;DHT22;3628;48.654;8.932;2023-02-13T12:44:40;7.60;99.90
7174;DHT22;3628;48.654;8.932;2023-02-13T12:49:58;8.00;99.90
7174;DHT22;3628;48.654;8.932;2023-02-13T12:52:43;7.90;99.90
7174;DHT22;3628;48.654;8.932;2023-02-13T12:57:59;8.30;99.90
7174;DHT22;3628;48.654;8.932;2023-02-13T13:06:09;8.50;99.90
7174;DHT22;3628;48.654;8.932;2023-02-13T13:08:58;8.50;99.90
7174;DHT22;3628;48.654;8.932;2023-02-13T13:12:08;8.70;99.90
7174;DHT22;3628;48.654;8.932;2023-02-13T13:17:32;8.90;99.90
7174;DHT22;3628;48.654;8.932;2023-02-13T13:22:54;9.30;99.90
7174;DHT22;3628;48.654;8.932;2023-02-13T13:28:25;9.40;99.90
7174;DHT22;3628;48.654;8.932;2023-02-13T13:30:53;9.60;99.90
7174;DHT22;3628;48.654;8.932;2023-02-13T13:33:21;9.70;99.90
7174;DHT22;3628;48.654;8.932;2023-02-13T13:35:58;9.80;99.90
7174;DHT22;3628;48.654;8.932;2023-02-13T13:47:44;9.70;99.90
7174;DHT22;3628;48.654;8.932;2023-02-13T13:53:09;9.80;99.90
7174;DHT22;3628;48.654;8.932;2023-02-13T13:58:44;9.90;99.90
7174;DHT22;3628;48.654;8.932;2023-02-13T14:01:17;9.80;99.90
7174;DHT22;3628;48.654;8.932;2023-02-13T14:03:44;9.60;99.90
7174;DHT22;3628;48.654;8.932;2023-02-13T14:06:15;9.50;99.90
7174;DHT22;3628;48.654;8.932;2023-02-13T14:11:39;9.60;99.90
7174;DHT22;3628;48.654;8.932;2023-02-13T14:16:55;9.90;99.90
7174;DHT22;3628;48.654;8.932;2023-02-13T14:19:38;10.00;99.90
7174;DHT22;3628;48.654;8.932;2023-02-13T14:24:52;10.00;99.90
7174;DHT22;3628;48.654;8.932;2023-02-13T14:27:24;10.00;99.90
7174;DHT22;3628;48.654;8.932;2023-02-13T14:29:50;10.00;99.90
7174;DHT22;3628;48.654;8.932;2023-02-13T14:32:34;10.00;99.90
7174;DHT22;3628;48.654;8.932;2023-02-13T14:35:20;10.00;99.90
7174;DHT22;3628;48.654;8.932;2023-02-13T14:37:50;10.00;99.90
7174;DHT22;3628;48.654;8.932;2023-02-13T14:42:45;10.00;99.90
7174;DHT22;3628;48.654;8.932;2023-02-13T14:45:28;9.90;99.90
7174;DHT22;3628;48.654;8.932;2023-02-13T14:47:57;9.90;99.90
7174;DHT22;3628;48.654;8.932;2023-02-13T14:50:39;9.80;99.90
7174;DHT22;3628;48.654;8.932;2023-02-13T14:55:49;9.80;99.90
7174;DHT22;3628;48.654;8.932;2023-02-13T14:58:31;9.70;99.90
7174;DHT22;3628;48.654;8.932;2023-02-13T15:01:23;9.70;99.90
7174;DHT22;3628;48.654;8.932;2023-02-13T15:03:57;9.70;99.90
7174;DHT22;3628;48.654;8.932;2023-02-13T15:06:31;9.60;99.90
7174;DHT22;3628;48.654;8.932;2023-02-13T15:09:02;9.50;99.90
7174;DHT22;3628;48.654;8.932;2023-02-13T15:11:32;9.50;99.90
7174;DHT22;3628;48.654;8.932;2023-02-13T15:14:22;9.40;99.90
7174;DHT22;3628;48.654;8.932;2023-02-13T15:17:13;9.40;99.90
7174;DHT22;3628;48.654;8.932;2023-02-13T15:19:44;9.40;99.90
7174;DHT22;3628;48.654;8.932;2023-02-13T15:22:24;9.30;99.90
7174;DHT22;3628;48.654;8.932;2023-02-13T15:24:51;9.40;99.90
7174;DHT22;3628;48.654;8.932;2023-02-13T15:27:28;9.30;99.90
7174;DHT22;3628;48.654;8.932;2023-02-13T15:30:00;9.20;99.90
7174;DHT22;3628;48.654;8.932;2023-02-13T15:32:31;9.10;99.90
7174;DHT22;3628;48.654;8.932;2023-02-13T15:34:57;9.00;99.90
7174;DHT22;3628;48.654;8.932;2023-02-13T15:37:27;9.00;99.90
7174;DHT22;3628;48.654;8.932;2023-02-13T15:39:53;8.90;99.90
7174;DHT22;3628;48.654;8.932;2023-02-13T15:42:18;8.90;99.90
7174;DHT22;3628;48.654;8.932;2023-02-13T15:44:47;8.90;99.90
7174;DHT22;3628;48.654;8.932;2023-02-13T15:47:29;8.80;99.90
7174;DHT22;3628;48.654;8.932;2023-02-13T15:49:56;8.70;99.90
7174;DHT22;3628;48.654;8.932;2023-02-13T15:52:31;8.70;99.90
7174;DHT22;3628;48.654;8.932;2023-02-13T15:54:58;8.60;99.90
7174;DHT22;3628;48.654;8.932;2023-02-13T15:57:25;8.50;99.90
7174;DHT22;3628;48.654;8.932;2023-02-13T15:59:52;8.40;99.90
7174;DHT22;3628;48.654;8.932;2023-02-13T16:02:20;8.40;99.90
7174;DHT22;3628;48.654;8.932;2023-02-13T16:04:50;8.30;99.90
7174;DHT22;3628;48.654;8.932;2023-02-13T16:07:17;8.20;99.90
7174;DHT22;3628;48.654;8.932;2023-02-13T16:09:42;8.10;99.90
7174;DHT22;3628;48.654;8.932;2023-02-13T16:12:24;7.90;99.90
7174;DHT22;3628;48.654;8.932;2023-02-13T16:17:32;7.70;99.90
7174;DHT22;3628;48.654;8.932;2023-02-13T16:20:05;7.60;99.90
7174;DHT22;3628;48.654;8.932;2023-02-13T16:22:42;7.50;99.90
7174;DHT22;3628;48.654;8.932;2023-02-13T16:27:34;7.30;99.90
7174;DHT22;3628;48.654;8.932;2023-02-13T16:30:04;7.20;99.90
7174;DHT22;3628;48.654;8.932;2023-02-13T16:32:35;7.10;99.90
7174;DHT22;3628;48.654;8.932;2023-02-13T16:35:27;7.00;99.90
7174;DHT22;3628;48.654;8.932;2023-02-13T16:37:56;6.80;99.90
7174;DHT22;3628;48.654;8.932;2023-02-13T16:40:37;6.60;99.90
7174;DHT22;3628;48.654;8.932;2023-02-13T16:51:42;6.20;99.90
7174;DHT22;3628;48.654;8.932;2023-02-13T16:54:30;6.10;99.90
7174;DHT22;3628;48.654;8.932;2023-02-13T16:59:50;5.80;99.90
7174;DHT22;3628;48.654;8.932;2023-02-13T17:05:13;5.40;99.90
7174;DHT22;3628;48.654;8.932;2023-02-13T17:07:43;5.30;99.90
7174;DHT22;3628;48.654;8.932;2023-02-13T17:10:29;5.10;99.90
7174;DHT22;3628;48.654;8.932;2023-02-13T17:13:00;4.90;99.90
7174;DHT22;3628;48.654;8.932;2023-02-13T17:15:28;4.80;99.90
7174;DHT22;3628;48.654;8.932;2023-02-13T17:17:54;4.70;99.90
7174;DHT22;3628;48.654;8.932;2023-02-13T17:20:28;4.60;99.90
7174;DHT22;3628;48.654;8.932;2023-02-13T17:22:56;4.50;99.90
7174;DHT22;3628;48.654;8.932;2023-02-13T17:25:30;4.40;99.90
7174;DHT22;3628;48.654;8.932;2023-02-13T17:27:58;4.30;99.90
7174;DHT22;3628;48.654;8.932;2023-02-13T17:30:28;4.30;99.90
7174;DHT22;3628;48.654;8.932;2023-02-13T17:33:04;4.20;99.90
7174;DHT22;3628;48.654;8.932;2023-02-13T17:35:30;4.10;99.90
7174;DHT22;3628;48.654;8.932;2023-02-13T17:37:57;4.00;99.90
7174;DHT22;3628;48.654;8.932;2023-02-13T17:40:25;3.90;99.90
7174;DHT22;3628;48.654;8.932;2023-02-13T17:42:54;3.80;99.90
7174;DHT22;3628;48.654;8.932;2023-02-13T17:45:24;3.70;99.90
7174;DHT22;3628;48.654;8.932;2023-02-13T17:47:50;3.60;99.90
7174;DHT22;3628;48.654;8.932;2023-02-13T17:50:16;3.50;99.90
7174;DHT22;3628;48.654;8.932;2023-02-13T17:52:42;3.50;99.90
7174;DHT22;3628;48.654;8.932;2023-02-13T17:55:20;3.40;99.90
7174;DHT22;3628;48.654;8.932;2023-02-13T17:57:47;3.40;99.90
7174;DHT22;3628;48.654;8.932;2023-02-13T18:00:13;3.30;99.90
7174;DHT22;3628;48.654;8.932;2023-02-13T18:02:39;3.30;99.90
7174;DHT22;3628;48.654;8.932;2023-02-13T18:05:07;3.20;99.90
7174;DHT22;3628;48.654;8.932;2023-02-13T18:07:33;3.10;99.90
7174;DHT22;3628;48.654;8.932;2023-02-13T18:09:58;3.10;99.90
7174;DHT22;3628;48.654;8.932;2023-02-13T18:12:24;3.00;99.90
7174;DHT22;3628;48.654;8.932;2023-02-13T18:14:51;3.00;99.90
7174;DHT22;3628;48.654;8.932;2023-02-13T18:17:18;3.00;99.90
7174;DHT22;3628;48.654;8.932;2023-02-13T18:19:44;2.90;99.90
7174;DHT22;3628;48.654;8.932;2023-02-13T18:22:10;2.90;99.90
7174;DHT22;3628;48.654;8.932;2023-02-13T18:24:37;2.80;99.90
7174;DHT22;3628;48.654;8.932;2023-02-13T18:27:03;2.70;99.90
7174;DHT22;3628;48.654;8.932;2023-02-13T18:29:29;2.70;99.90
7174;DHT22;3628;48.654;8.932;2023-02-13T18:31:55;2.60;99.90
7174;DHT22;3628;48.654;8.932;2023-02-13T18:34:22;2.60;99.90
7174;DHT22;3628;48.654;8.932;2023-02-13T18:36:49;2.50;99.90
7174;DHT22;3628;48.654;8.932;2023-02-13T18:39:16;2.50;99.90
7174;DHT22;3628;48.654;8.932;2023-02-13T18:41:42;2.40;99.90
7174;DHT22;3628;48.654;8.932;2023-02-13T18:44:08;2.40;99.90
7174;DHT22;3628;48.654;8.932;2023-02-13T18:46:34;2.40;99.90
7174;DHT22;3628;48.654;8.932;2023-02-13T18:49:00;2.40;99.90
7174;DHT22;3628;48.654;8.932;2023-02-13T18:51:25;2.40;99.90
7174;DHT22;3628;48.654;8.932;2023-02-13T18:53:51;2.30;99.90
7174;DHT22;3628;48.654;8.932;2023-02-13T18:56:16;2.30;99.90
7174;DHT22;3628;48.654;8.932;2023-02-13T18:58:45;2.20;99.90
7174;DHT22;3628;48.654;8.932;2023-02-13T19:01:13;2.20;99.90